createdAt,value
2022-11-26T00:01:21.725Z,11.30
2022-11-26T00:03:52.136Z,11.30
2022-11-26T00:06:30.449Z,11.20
2022-11-26T00:09:00.200Z,11.30
2022-11-26T00:11:29.855Z,11.30
2022-11-26T00:13:58.011Z,11.20
2022-11-26T00:16:26.227Z,11.20
2022-11-26T00:18:54.385Z,11.20
2022-11-26T00:21:24.900Z,11.30
2022-11-26T00:23:54.665Z,11.20
2022-11-26T00:26:25.545Z,11.20
2022-11-26T00:28:57.958Z,11.20
2022-11-26T00:31:26.321Z,11.20
2022-11-26T00:33:54.571Z,11.20
2022-11-26T00:36:25.785Z,11.20
2022-11-26T00:38:57.864Z,11.20
2022-11-26T00:41:30.263Z,11.20
2022-11-26T00:43:59.933Z,11.50
2022-11-26T00:46:28.416Z,11.20
2022-11-26T00:48:56.806Z,11.20
2022-11-26T00:51:27.438Z,11.10
2022-11-26T00:53:57.743Z,11.10
2022-11-26T00:56:26.465Z,11.10
2022-11-26T00:58:54.630Z,11.10
2022-11-26T01:01:26.322Z,11.10
2022-11-26T01:03:54.629Z,11.10
2022-11-26T01:06:25.085Z,11.10
2022-11-26T01:08:53.542Z,11.10
2022-11-26T01:11:24.299Z,11.10
2022-11-26T01:13:54.584Z,11.10
2022-11-26T01:16:27.337Z,11.10
2022-11-26T01:18:57.493Z,11.10
2022-11-26T01:21:33.343Z,11.10
2022-11-26T01:24:01.469Z,11.10
2022-11-26T01:26:34.965Z,11.10
2022-11-26T01:29:03.113Z,11.00
2022-11-26T01:31:33.162Z,11.10
2022-11-26T01:34:01.452Z,11.00
2022-11-26T01:36:31.040Z,11.00
2022-11-26T01:39:04.734Z,11.00
2022-11-26T01:41:45.561Z,11.00
2022-11-26T01:44:19.057Z,11.00
2022-11-26T01:46:49.864Z,11.00
2022-11-26T01:49:20.287Z,11.00
2022-11-26T01:51:52.066Z,11.00
2022-11-26T01:54:20.300Z,11.20
2022-11-26T01:56:51.145Z,11.00
2022-11-26T01:59:24.591Z,11.00
2022-11-26T02:01:56.262Z,11.00
2022-11-26T02:04:28.164Z,11.00
2022-11-26T02:06:57.724Z,10.90
2022-11-26T02:09:27.133Z,10.90
2022-11-26T02:11:55.911Z,10.90
2022-11-26T02:14:27.079Z,10.90
2022-11-26T02:17:25.576Z,10.90
2022-11-26T02:20:26.582Z,10.90
2022-11-26T02:23:23.461Z,10.90
2022-11-26T02:26:20.356Z,11.00
2022-11-26T02:29:03.768Z,11.00
2022-11-26T02:31:38.994Z,10.90
2022-11-26T02:34:14.429Z,10.90
2022-11-26T02:36:49.354Z,10.90
2022-11-26T02:39:19.363Z,10.90
2022-11-26T02:41:50.073Z,10.90
2022-11-26T02:44:22.970Z,10.90
2022-11-26T02:46:57.444Z,10.90
2022-11-26T02:49:27.067Z,10.90
2022-11-26T02:51:58.872Z,10.90
2022-11-26T02:54:29.076Z,10.90
2022-11-26T02:56:58.224Z,10.90
2022-11-26T02:59:26.869Z,10.90
2022-11-26T03:02:00.493Z,10.80
2022-11-26T03:04:34.485Z,10.90
2022-11-26T03:07:05.545Z,10.90
2022-11-26T03:09:41.255Z,10.90
2022-11-26T03:12:09.655Z,10.90
2022-11-26T03:14:38.176Z,10.80
2022-11-26T03:17:08.229Z,10.80
2022-11-26T03:19:36.489Z,10.80
2022-11-26T03:22:05.012Z,10.90
2022-11-26T03:24:33.596Z,10.80
2022-11-26T03:27:01.808Z,10.80
2022-11-26T03:29:30.137Z,10.80
2022-11-26T03:31:58.837Z,10.80
2022-11-26T03:34:28.541Z,10.80
2022-11-26T03:36:56.821Z,10.80
2022-11-26T03:39:25.098Z,10.80
2022-11-26T03:41:53.427Z,10.80
2022-11-26T03:44:21.741Z,10.70
2022-11-26T03:46:49.894Z,10.70
2022-11-26T03:49:18.152Z,10.70
2022-11-26T03:51:47.638Z,10.70
2022-11-26T03:54:16.025Z,10.70
2022-11-26T03:56:44.291Z,10.70
2022-11-26T03:59:12.535Z,10.70
2022-11-26T04:01:41.001Z,10.70
2022-11-26T04:04:09.248Z,10.60
2022-11-26T04:06:37.647Z,10.70
2022-11-26T04:09:07.483Z,10.60
2022-11-26T04:11:35.786Z,10.60
2022-11-26T04:14:04.176Z,11.00
2022-11-26T04:16:32.564Z,10.60
2022-11-26T04:19:00.842Z,10.80
2022-11-26T04:21:29.001Z,10.60
2022-11-26T04:23:57.143Z,10.60
2022-11-26T04:26:26.782Z,10.60
2022-11-26T04:28:54.985Z,10.60
2022-11-26T04:31:23.445Z,10.90
2022-11-26T04:33:51.696Z,10.60
2022-11-26T04:36:19.956Z,10.60
2022-11-26T04:38:48.406Z,10.60
2022-11-26T04:41:16.683Z,10.60
2022-11-26T04:43:46.314Z,10.60
2022-11-26T04:46:14.589Z,10.60
2022-11-26T04:48:43.059Z,10.50
2022-11-26T04:51:11.402Z,10.60
2022-11-26T04:53:39.674Z,10.60
2022-11-26T04:56:08.444Z,10.60
2022-11-26T04:58:36.899Z,10.60
2022-11-26T05:01:07.153Z,10.60
2022-11-26T05:03:36.257Z,10.50
2022-11-26T05:06:04.644Z,10.60
2022-11-26T05:08:32.912Z,10.60
2022-11-26T05:11:03.080Z,10.50
2022-11-26T05:13:31.243Z,10.50
2022-11-26T05:15:59.419Z,10.50
2022-11-26T05:18:29.005Z,10.50
2022-11-26T05:20:57.618Z,10.50
2022-11-26T05:23:26.003Z,10.50
2022-11-26T05:25:54.269Z,10.50
2022-11-26T05:28:22.469Z,10.50
2022-11-26T05:30:50.875Z,10.50
2022-11-26T05:33:19.084Z,10.40
2022-11-26T05:35:48.808Z,10.50
2022-11-26T05:38:17.237Z,10.40
2022-11-26T05:40:45.589Z,10.50
2022-11-26T05:43:14.199Z,10.50
2022-11-26T05:45:42.845Z,10.40
2022-11-26T05:48:11.295Z,10.40
2022-11-26T05:50:39.668Z,10.40
2022-11-26T05:53:09.309Z,10.40
2022-11-26T05:55:37.518Z,10.40
2022-11-26T05:58:05.909Z,10.40
2022-11-26T06:00:34.133Z,10.30
2022-11-26T06:03:02.494Z,10.30
2022-11-26T06:05:30.748Z,10.30
2022-11-26T06:07:59.082Z,10.40
2022-11-26T06:10:28.760Z,10.30
2022-11-26T06:12:56.917Z,10.30
2022-11-26T06:15:25.177Z,10.20
2022-11-26T06:17:53.486Z,10.20
2022-11-26T06:20:21.690Z,10.20
2022-11-26T06:22:49.927Z,10.20
2022-11-26T06:25:18.355Z,10.20
2022-11-26T06:27:47.953Z,10.20
2022-11-26T06:30:16.482Z,10.20
2022-11-26T06:32:44.849Z,10.20
2022-11-26T06:35:13.100Z,10.20
2022-11-26T06:37:41.431Z,10.20
2022-11-26T06:40:16.393Z,10.20
2022-11-26T06:42:50.989Z,10.10
2022-11-26T06:45:19.440Z,10.10
2022-11-26T06:47:48.312Z,10.10
2022-11-26T06:50:17.403Z,10.10
2022-11-26T06:52:45.695Z,10.10
2022-11-26T06:55:16.238Z,10.10
2022-11-26T06:57:44.494Z,10.00
2022-11-26T07:00:15.212Z,10.10
2022-11-26T07:02:43.575Z,10.00
2022-11-26T07:05:11.886Z,10.00
2022-11-26T07:07:40.676Z,10.00
2022-11-26T07:10:09.888Z,10.00
2022-11-26T07:12:38.294Z,10.00
2022-11-26T07:15:07.386Z,10.00
2022-11-26T07:17:36.955Z,10.00
2022-11-26T07:20:06.073Z,10.00
2022-11-26T07:22:35.817Z,9.60
2022-11-26T07:25:08.085Z,10.00
2022-11-26T07:27:39.475Z,10.00
2022-11-26T07:30:09.138Z,10.00
2022-11-26T07:32:38.795Z,10.00
2022-11-26T07:35:07.645Z,10.00
2022-11-26T07:37:36.302Z,9.90
2022-11-26T07:40:05.828Z,10.00
2022-11-26T07:42:34.711Z,9.90
2022-11-26T07:45:03.821Z,10.20
2022-11-26T07:47:32.233Z,9.90
2022-11-26T07:50:01.982Z,9.90
2022-11-26T07:52:33.132Z,9.90
2022-11-26T07:55:01.380Z,9.90
2022-11-26T07:57:29.775Z,9.90
2022-11-26T07:59:58.114Z,9.90
2022-11-26T08:02:26.475Z,9.90
2022-11-26T08:04:54.730Z,9.90
2022-11-26T08:07:28.987Z,9.90
2022-11-26T08:09:57.983Z,9.90
2022-11-26T08:12:26.828Z,9.90
2022-11-26T08:14:55.145Z,9.90
2022-11-26T08:17:23.524Z,9.90
2022-11-26T08:19:51.842Z,9.90
2022-11-26T08:22:20.123Z,9.90
2022-11-26T08:24:50.840Z,9.90
2022-11-26T08:27:19.299Z,9.90
2022-11-26T08:29:47.602Z,9.90
2022-11-26T08:32:15.984Z,9.90
2022-11-26T08:34:44.407Z,9.90
2022-11-26T08:37:12.798Z,10.10
2022-11-26T08:39:41.189Z,9.90
2022-11-26T08:42:11.074Z,9.90
2022-11-26T08:44:39.653Z,9.90
2022-11-26T08:47:08.354Z,9.90
2022-11-26T08:49:36.987Z,9.90
2022-11-26T08:52:05.621Z,10.00
2022-11-26T08:54:34.055Z,10.00
2022-11-26T08:57:02.463Z,10.00
2022-11-26T08:59:32.038Z,10.00
2022-11-26T09:02:00.389Z,10.00
2022-11-26T09:04:28.671Z,10.00
2022-11-26T09:06:57.074Z,10.00
2022-11-26T09:09:25.442Z,10.00
2022-11-26T09:11:57.790Z,10.00
2022-11-26T09:14:29.002Z,10.00
2022-11-26T09:16:59.614Z,10.10
2022-11-26T09:19:29.368Z,10.10
2022-11-26T09:21:57.679Z,10.10
2022-11-26T09:24:26.234Z,10.10
2022-11-26T09:26:54.843Z,10.10
2022-11-26T09:29:24.701Z,10.10
2022-11-26T09:32:23.665Z,10.10
2022-11-26T09:34:43.279Z,10.20
2022-11-26T09:37:11.625Z,10.20
2022-11-26T09:39:40.139Z,10.20
2022-11-26T09:42:10.399Z,10.20
2022-11-26T09:44:57.107Z,10.20
2022-11-26T09:47:27.972Z,10.20
2022-11-26T09:50:08.452Z,10.20
2022-11-26T09:52:41.223Z,10.30
2022-11-26T09:55:18.646Z,10.30
2022-11-26T09:57:55.479Z,10.30
2022-11-26T10:00:28.135Z,10.30
2022-11-26T10:02:58.323Z,10.30
2022-11-26T10:05:43.622Z,10.30
2022-11-26T10:08:30.705Z,10.30
2022-11-26T10:11:07.532Z,10.40
2022-11-26T10:13:45.577Z,10.30
2022-11-26T10:16:26.137Z,10.40
2022-11-26T10:19:03.808Z,10.40
2022-11-26T10:21:58.067Z,10.40
2022-11-26T10:24:31.276Z,10.40
2022-11-26T10:27:02.775Z,10.40
2022-11-26T10:29:39.451Z,10.50
2022-11-26T10:32:19.705Z,10.50
2022-11-26T10:34:52.164Z,10.50
2022-11-26T10:37:24.179Z,10.50
2022-11-26T10:40:01.043Z,10.50
2022-11-26T10:42:42.361Z,10.50
2022-11-26T10:45:20.275Z,10.60
2022-11-26T10:47:48.727Z,10.60
2022-11-26T10:53:22.638Z,10.60
2022-11-26T10:55:53.093Z,10.60
2022-11-26T10:58:25.210Z,10.60
2022-11-26T11:01:00.596Z,10.70
2022-11-26T11:04:06.746Z,10.60
2022-11-26T11:06:39.589Z,10.70
2022-11-26T11:09:31.652Z,10.70
2022-11-26T11:12:22.835Z,10.70
2022-11-26T11:14:52.144Z,10.70
2022-11-26T11:17:31.772Z,10.70
2022-11-26T11:20:04.924Z,10.70
2022-11-26T11:22:33.358Z,10.70
2022-11-26T11:25:03.160Z,10.70
2022-11-26T11:27:40.410Z,10.80
2022-11-26T11:30:25.724Z,10.70
2022-11-26T11:32:57.940Z,10.70
2022-11-26T11:35:30.324Z,10.80
2022-11-26T11:38:00.407Z,10.80
2022-11-26T11:40:33.342Z,10.80
2022-11-26T11:43:04.245Z,10.80
2022-11-26T11:45:35.462Z,10.80
2022-11-26T11:48:15.672Z,10.80
2022-11-26T11:50:50.226Z,10.80
2022-11-26T11:53:32.178Z,10.80
2022-11-26T11:56:23.974Z,10.80
2022-11-26T11:59:36.134Z,11.10
2022-11-26T12:02:32.157Z,10.90
2022-11-26T12:05:09.293Z,10.90
2022-11-26T12:07:40.336Z,10.90
2022-11-26T12:10:20.345Z,10.90
2022-11-26T12:12:52.952Z,11.00
2022-11-26T12:15:28.143Z,11.00
2022-11-26T12:18:01.741Z,11.00
2022-11-26T12:20:35.587Z,11.00
2022-11-26T12:23:25.124Z,11.00
2022-11-26T12:25:57.912Z,11.00
2022-11-26T12:28:30.385Z,11.00
2022-11-26T12:31:04.056Z,11.10
2022-11-26T12:33:35.920Z,11.00
2022-11-26T12:36:15.574Z,11.10
2022-11-26T12:38:48.443Z,11.10
2022-11-26T12:41:21.320Z,11.10
2022-11-26T12:43:59.412Z,11.10
2022-11-26T12:46:34.751Z,11.20
2022-11-26T12:49:11.222Z,11.20
2022-11-26T12:51:45.587Z,11.20
2022-11-26T12:54:19.460Z,11.20
2022-11-26T12:56:57.914Z,11.20
2022-11-26T12:59:32.394Z,11.20
2022-11-26T13:02:01.822Z,11.20
2022-11-26T13:04:37.750Z,11.20
2022-11-26T13:07:19.590Z,11.30
2022-11-26T13:10:00.202Z,11.30
2022-11-26T13:12:37.151Z,11.30
2022-11-26T13:15:15.496Z,11.30
2022-11-26T13:17:45.677Z,11.30
2022-11-26T13:20:40.026Z,11.30
2022-11-26T13:23:24.482Z,11.30
2022-11-26T13:26:24.696Z,11.30
2022-11-26T13:29:12.784Z,11.40
2022-11-26T13:32:00.280Z,11.40
2022-11-26T13:34:53.928Z,11.40
2022-11-26T13:37:35.652Z,11.40
2022-11-26T13:40:24.267Z,11.50
2022-11-26T13:43:27.580Z,11.50
2022-11-26T13:46:08.259Z,11.50
2022-11-26T13:48:46.202Z,11.50
2022-11-26T13:51:25.477Z,11.50
2022-11-26T13:53:57.754Z,11.50
2022-11-26T13:56:32.347Z,11.50
2022-11-26T13:59:03.945Z,11.50
2022-11-26T14:01:37.239Z,11.50
2022-11-26T14:04:09.180Z,11.50
2022-11-26T14:06:38.130Z,11.50
2022-11-26T14:09:06.983Z,11.50
2022-11-26T14:11:57.104Z,11.50
2022-11-26T14:14:36.917Z,11.50
2022-11-26T14:17:20.329Z,11.50
2022-11-26T14:20:17.164Z,11.50
2022-11-26T14:22:45.377Z,11.50
2022-11-26T14:25:14.425Z,11.50
2022-11-26T14:27:50.741Z,11.50
2022-11-26T14:30:25.519Z,11.50
2022-11-26T14:33:10.512Z,11.50
2022-11-26T14:35:41.178Z,11.50
2022-11-26T14:38:25.151Z,11.50
2022-11-26T14:41:00.609Z,11.50
2022-11-26T14:43:29.885Z,11.50
2022-11-26T14:46:10.568Z,11.50
2022-11-26T14:48:44.511Z,11.50
2022-11-26T14:51:20.154Z,11.50
2022-11-26T14:53:49.950Z,11.50
2022-11-26T14:56:20.184Z,11.50
2022-11-26T14:58:51.510Z,11.20
2022-11-26T15:01:22.833Z,11.50
2022-11-26T15:04:00.724Z,11.50
2022-11-26T15:06:35.012Z,11.50
2022-11-26T15:09:09.015Z,11.50
2022-11-26T15:11:39.675Z,11.50
2022-11-26T15:14:13.301Z,11.50
2022-11-26T15:16:42.810Z,11.50
2022-11-26T15:19:16.173Z,11.50
2022-11-26T15:21:45.921Z,11.50
2022-11-26T15:24:17.133Z,11.50
2022-11-26T15:26:47.536Z,11.50
2022-11-26T15:29:31.942Z,11.50
2022-11-26T15:32:00.734Z,11.50
2022-11-26T15:34:30.332Z,11.50
2022-11-26T15:37:00.276Z,11.40
2022-11-26T15:39:30.826Z,11.50
2022-11-26T15:42:03.960Z,11.40
2022-11-26T15:44:40.605Z,11.40
2022-11-26T15:47:20.240Z,11.40
2022-11-26T15:49:52.760Z,11.40
2022-11-26T15:52:25.954Z,11.40
2022-11-26T15:55:16.570Z,11.40
2022-11-26T15:57:49.282Z,11.40
2022-11-26T16:00:23.449Z,11.40
2022-11-26T16:02:52.874Z,11.40
2022-11-26T16:05:28.912Z,11.40
2022-11-26T16:08:01.575Z,11.40
2022-11-26T16:10:35.476Z,11.30
2022-11-26T16:13:22.815Z,11.30
2022-11-26T16:15:55.823Z,11.30
2022-11-26T16:18:27.007Z,11.30
2022-11-26T16:21:04.551Z,11.30
2022-11-26T16:23:34.647Z,11.30
2022-11-26T16:26:16.367Z,11.30
2022-11-26T16:28:46.008Z,11.20
2022-11-26T16:31:14.704Z,11.20
2022-11-26T16:33:43.886Z,11.20
2022-11-26T16:36:23.983Z,11.20
2022-11-26T16:38:54.209Z,11.20
2022-11-26T16:41:23.565Z,11.20
2022-11-26T16:43:51.959Z,11.30
2022-11-26T16:46:23.463Z,11.20
2022-11-26T16:48:52.027Z,11.20
2022-11-26T16:51:20.981Z,11.20
2022-11-26T16:53:49.271Z,11.20
2022-11-26T16:56:23.344Z,11.20
2022-11-26T16:58:52.475Z,11.10
2022-11-26T17:01:21.211Z,11.10
2022-11-26T17:03:49.499Z,11.10
2022-11-26T17:06:24.043Z,11.10
2022-11-26T17:08:53.060Z,11.10
2022-11-26T17:11:23.254Z,11.10
2022-11-26T17:13:51.617Z,11.10
2022-11-26T17:16:21.759Z,11.10
2022-11-26T17:18:51.941Z,11.10
2022-11-26T17:21:20.258Z,11.10
2022-11-26T17:23:48.530Z,11.10
2022-11-26T17:26:23.722Z,11.10
2022-11-26T17:28:52.573Z,11.10
2022-11-26T17:31:20.873Z,11.10
2022-11-26T17:33:50.634Z,11.00
2022-11-26T17:36:21.540Z,11.00
2022-11-26T17:38:50.188Z,11.00
2022-11-26T17:41:19.064Z,11.00
2022-11-26T17:43:48.626Z,11.00
2022-11-26T17:46:19.419Z,11.00
2022-11-26T17:48:48.508Z,11.00
2022-11-26T17:51:17.234Z,11.00
2022-11-26T17:53:45.794Z,11.00
2022-11-26T17:56:18.803Z,11.00
2022-11-26T17:58:48.540Z,11.00
2022-11-26T18:01:17.936Z,11.00
2022-11-26T18:03:47.240Z,11.00
2022-11-26T18:06:17.524Z,11.00
2022-11-26T18:08:46.325Z,10.90
2022-11-26T18:11:16.474Z,10.90
2022-11-26T18:13:45.258Z,11.00
2022-11-26T18:16:14.984Z,10.90
2022-11-26T18:18:43.338Z,10.90
2022-11-26T18:21:13.068Z,10.90
2022-11-26T18:23:47.708Z,10.90
2022-11-26T18:26:18.579Z,10.90
2022-11-26T18:28:46.781Z,10.90
2022-11-26T18:31:16.358Z,10.90
2022-11-26T18:33:44.652Z,10.90
2022-11-26T18:36:13.342Z,10.90
2022-11-26T18:38:41.708Z,11.00
2022-11-26T18:41:10.229Z,10.90
2022-11-26T18:43:39.964Z,10.80
2022-11-26T18:46:15.918Z,10.90
2022-11-26T18:48:46.956Z,10.80
2022-11-26T18:51:16.131Z,10.80
2022-11-26T18:53:45.035Z,10.80
2022-11-26T18:56:15.882Z,10.80
2022-11-26T18:58:44.955Z,10.80
2022-11-26T19:01:14.715Z,10.80
2022-11-26T19:03:44.255Z,10.80
2022-11-26T19:06:16.797Z,10.80
2022-11-26T19:08:45.899Z,10.80
2022-11-26T19:11:17.898Z,10.80
2022-11-26T19:13:46.322Z,10.80
2022-11-26T19:16:17.105Z,10.80
2022-11-26T19:18:46.264Z,10.70
2022-11-26T19:21:23.197Z,10.70
2022-11-26T19:23:52.212Z,10.80
2022-11-26T19:26:21.659Z,10.70
2022-11-26T19:28:50.185Z,10.70
2022-11-26T19:31:21.076Z,10.70
2022-11-26T19:33:54.286Z,10.70
2022-11-26T19:36:24.164Z,10.70
2022-11-26T19:38:56.088Z,10.70
2022-11-26T19:41:25.915Z,10.70
2022-11-26T19:43:55.183Z,10.70
2022-11-26T19:46:25.097Z,10.70
2022-11-26T19:48:54.397Z,10.70
2022-11-26T19:51:26.328Z,10.70
2022-11-26T19:53:56.249Z,10.70
2022-11-26T19:56:26.735Z,10.70
2022-11-26T19:58:57.741Z,10.70
2022-11-26T20:01:30.468Z,10.70
2022-11-26T20:04:00.008Z,10.70
2022-11-26T20:06:31.158Z,10.70
2022-11-26T20:08:59.784Z,10.70
2022-11-26T20:11:29.441Z,10.60
2022-11-26T20:13:58.789Z,10.60
2022-11-26T20:16:29.392Z,10.60
2022-11-26T20:18:58.557Z,10.60
2022-11-26T20:21:31.709Z,10.60
2022-11-26T20:24:01.887Z,10.60
2022-11-26T20:26:32.733Z,10.60
2022-11-26T20:29:02.847Z,10.60
2022-11-26T20:31:31.521Z,10.50
2022-11-26T20:34:02.163Z,10.60
2022-11-26T20:36:32.322Z,10.50
2022-11-26T20:39:02.699Z,10.50
2022-11-26T20:41:31.907Z,10.50
2022-11-26T20:44:00.547Z,10.50
2022-11-26T20:46:29.269Z,10.50
2022-11-26T20:48:57.957Z,10.50
2022-11-26T20:51:26.590Z,10.50
2022-11-26T20:53:59.676Z,10.50
2022-11-26T20:56:29.136Z,10.50
2022-11-26T20:58:57.635Z,10.50
2022-11-26T21:01:28.361Z,10.50
2022-11-26T21:03:58.196Z,10.40
2022-11-26T21:06:30.427Z,10.40
2022-11-26T21:09:01.877Z,10.50
2022-11-26T21:11:31.511Z,10.40
2022-11-26T21:14:01.832Z,10.40
2022-11-26T21:16:30.880Z,10.40
2022-11-26T21:19:00.008Z,10.40
2022-11-26T21:21:29.633Z,10.40
2022-11-26T21:24:04.727Z,10.40
2022-11-26T21:26:33.700Z,10.50
2022-11-26T21:29:03.496Z,10.40
2022-11-26T21:31:33.088Z,10.40
2022-11-26T21:34:02.895Z,10.40
2022-11-26T21:36:33.570Z,10.40
2022-11-26T21:39:04.317Z,10.40
2022-11-26T21:41:33.605Z,10.40
2022-11-26T21:44:04.032Z,10.40
2022-11-26T21:46:37.934Z,10.40
2022-11-26T21:49:07.580Z,10.40
2022-11-26T21:51:35.905Z,10.40
2022-11-26T21:54:06.002Z,10.40
2022-11-26T21:56:34.483Z,10.30
2022-11-26T21:59:03.165Z,10.30
2022-11-26T22:01:33.255Z,10.40
2022-11-26T22:04:03.229Z,10.40
2022-11-26T22:06:31.832Z,10.30
2022-11-26T22:09:00.625Z,10.30
2022-11-26T22:11:32.023Z,10.30
2022-11-26T22:14:00.348Z,10.30
2022-11-26T22:16:30.385Z,10.30
2022-11-26T22:19:00.324Z,10.30
2022-11-26T22:21:30.797Z,10.30
2022-11-26T22:24:00.392Z,10.30
2022-11-26T22:26:31.814Z,10.20
2022-11-26T22:29:01.073Z,10.30
2022-11-26T22:31:31.492Z,10.30
2022-11-26T22:34:01.699Z,10.20
2022-11-26T22:36:30.225Z,9.80
2022-11-26T22:38:59.545Z,10.20
2022-11-26T22:41:29.479Z,10.20
2022-11-26T22:44:00.101Z,10.20
2022-11-26T22:46:28.517Z,10.20
2022-11-26T22:48:58.440Z,10.20
2022-11-26T22:51:28.848Z,10.20
2022-11-26T22:53:58.544Z,10.20
2022-11-26T22:56:27.752Z,10.20
2022-11-26T22:58:57.579Z,10.10
2022-11-26T23:01:28.091Z,10.10
2022-11-26T23:03:57.708Z,10.10
2022-11-26T23:06:29.189Z,10.10
2022-11-26T23:08:58.844Z,10.30
2022-11-26T23:11:30.551Z,10.10
2022-11-26T23:14:02.092Z,10.10
2022-11-26T23:16:30.643Z,10.10
2022-11-26T23:18:59.052Z,10.10
2022-11-26T23:21:28.877Z,10.10
2022-11-26T23:23:57.700Z,10.10
2022-11-26T23:26:28.821Z,10.00
2022-11-26T23:28:59.370Z,10.10
2022-11-26T23:31:29.980Z,10.00
2022-11-26T23:33:58.713Z,10.00
2022-11-26T23:36:28.604Z,10.00
2022-11-26T23:38:57.480Z,10.00
2022-11-26T23:41:25.716Z,10.00
2022-11-26T23:43:53.999Z,10.00
2022-11-26T23:46:26.354Z,10.00
2022-11-26T23:48:55.079Z,10.00
2022-11-26T23:51:25.997Z,10.10
2022-11-26T23:53:54.848Z,10.00
2022-11-26T23:56:25.017Z,10.00
2022-11-26T23:58:54.562Z,10.00
